sensor_id;sensor_type;location;lat;lon;timestamp;temperature;humidity
2873;DHT22;1444;49.166;7.312;2024-02-21T00:01:33;9.20;99.90
2873;DHT22;1444;49.166;7.312;2024-02-21T00:04:06;9.20;99.90
2873;DHT22;1444;49.166;7.312;2024-02-21T00:06:33;9.10;99.90
2873;DHT22;1444;49.166;7.312;2024-02-21T00:09:01;9.10;99.90
2873;DHT22;1444;49.166;7.312;2024-02-21T00:11:28;9.10;99.90
2873;DHT22;1444;49.166;7.312;2024-02-21T00:13:55;9.00;99.90
2873;DHT22;1444;49.166;7.312;2024-02-21T00:16:22;9.10;99.90
2873;DHT22;1444;49.166;7.312;2024-02-21T00:18:48;9.10;99.90
2873;DHT22;1444;49.166;7.312;2024-02-21T00:21:15;9.10;99.90
2873;DHT22;1444;49.166;7.312;2024-02-21T00:23:44;9.20;99.90
2873;DHT22;1444;49.166;7.312;2024-02-21T00:26:14;9.30;99.90
2873;DHT22;1444;49.166;7.312;2024-02-21T00:28:41;9.40;99.90
2873;DHT22;1444;49.166;7.312;2024-02-21T00:31:07;9.50;99.90
2873;DHT22;1444;49.166;7.312;2024-02-21T00:33:34;9.50;99.90
2873;DHT22;1444;49.166;7.312;2024-02-21T00:36:01;9.40;99.90
2873;DHT22;1444;49.166;7.312;2024-02-21T00:38:30;9.20;99.90
2873;DHT22;1444;49.166;7.312;2024-02-21T00:40:57;9.20;99.90
2873;DHT22;1444;49.166;7.312;2024-02-21T00:43:25;9.20;99.90
2873;DHT22;1444;49.166;7.312;2024-02-21T00:45:52;9.10;99.90
2873;DHT22;1444;49.166;7.312;2024-02-21T00:48:19;9.00;99.90
2873;DHT22;1444;49.166;7.312;2024-02-21T00:50:46;9.00;99.90
2873;DHT22;1444;49.166;7.312;2024-02-21T00:53:12;9.00;99.90
2873;DHT22;1444;49.166;7.312;2024-02-21T00:55:39;8.90;99.90
2873;DHT22;1444;49.166;7.312;2024-02-21T00:58:07;8.90;99.90
2873;DHT22;1444;49.166;7.312;2024-02-21T01:00:35;8.90;99.90
2873;DHT22;1444;49.166;7.312;2024-02-21T01:03:02;8.90;99.90
2873;DHT22;1444;49.166;7.312;2024-02-21T01:07:56;8.80;99.90
2873;DHT22;1444;49.166;7.312;2024-02-21T01:10:23;8.80;99.90
2873;DHT22;1444;49.166;7.312;2024-02-21T01:12:50;8.80;99.90
2873;DHT22;1444;49.166;7.312;2024-02-21T01:15:16;8.80;99.90
2873;DHT22;1444;49.166;7.312;2024-02-21T01:17:45;8.80;99.90
2873;DHT22;1444;49.166;7.312;2024-02-21T01:20:12;8.80;99.90
2873;DHT22;1444;49.166;7.312;2024-02-21T01:22:39;8.70;99.90
2873;DHT22;1444;49.166;7.312;2024-02-21T01:25:07;8.70;99.90
2873;DHT22;1444;49.166;7.312;2024-02-21T01:27:34;8.70;99.90
2873;DHT22;1444;49.166;7.312;2024-02-21T01:30:01;8.70;99.90
2873;DHT22;1444;49.166;7.312;2024-02-21T01:32:28;8.60;99.90
2873;DHT22;1444;49.166;7.312;2024-02-21T01:34:56;8.50;99.90
2873;DHT22;1444;49.166;7.312;2024-02-21T01:37:22;8.50;99.90
2873;DHT22;1444;49.166;7.312;2024-02-21T01:39:49;8.50;99.90
2873;DHT22;1444;49.166;7.312;2024-02-21T01:42:16;8.40;99.90
2873;DHT22;1444;49.166;7.312;2024-02-21T01:44:43;8.40;99.90
2873;DHT22;1444;49.166;7.312;2024-02-21T01:47:09;8.30;99.90
2873;DHT22;1444;49.166;7.312;2024-02-21T01:49:39;8.40;99.90
2873;DHT22;1444;49.166;7.312;2024-02-21T01:52:07;8.40;99.90
2873;DHT22;1444;49.166;7.312;2024-02-21T01:54:34;8.50;99.90
2873;DHT22;1444;49.166;7.312;2024-02-21T01:57:01;8.40;99.90
2873;DHT22;1444;49.166;7.312;2024-02-21T01:59:28;8.40;99.90
2873;DHT22;1444;49.166;7.312;2024-02-21T02:01:55;8.40;99.90
2873;DHT22;1444;49.166;7.312;2024-02-21T02:04:23;8.40;99.90
2873;DHT22;1444;49.166;7.312;2024-02-21T02:06:54;8.40;99.90
2873;DHT22;1444;49.166;7.312;2024-02-21T02:09:22;8.40;99.90
2873;DHT22;1444;49.166;7.312;2024-02-21T02:11:50;8.40;99.90
2873;DHT22;1444;49.166;7.312;2024-02-21T02:14:17;8.40;99.90
2873;DHT22;1444;49.166;7.312;2024-02-21T02:16:46;8.40;99.90
2873;DHT22;1444;49.166;7.312;2024-02-21T02:19:14;8.40;99.90
2873;DHT22;1444;49.166;7.312;2024-02-21T02:21:45;8.40;99.90
2873;DHT22;1444;49.166;7.312;2024-02-21T02:24:14;8.30;99.90
2873;DHT22;1444;49.166;7.312;2024-02-21T02:26:41;8.30;99.90
2873;DHT22;1444;49.166;7.312;2024-02-21T02:29:08;8.30;99.90
2873;DHT22;1444;49.166;7.312;2024-02-21T02:31:35;8.30;99.90
2873;DHT22;1444;49.166;7.312;2024-02-21T02:34:02;8.20;99.90
2873;DHT22;1444;49.166;7.312;2024-02-21T02:38:57;8.30;99.90
2873;DHT22;1444;49.166;7.312;2024-02-21T02:41:25;8.40;99.90
2873;DHT22;1444;49.166;7.312;2024-02-21T02:43:52;8.40;99.90
2873;DHT22;1444;49.166;7.312;2024-02-21T02:46:18;8.20;99.90
2873;DHT22;1444;49.166;7.312;2024-02-21T02:48:45;8.10;99.90
2873;DHT22;1444;49.166;7.312;2024-02-21T02:51:12;8.00;99.90
2873;DHT22;1444;49.166;7.312;2024-02-21T02:53:39;7.90;99.90
2873;DHT22;1444;49.166;7.312;2024-02-21T02:56:06;7.90;99.90
2873;DHT22;1444;49.166;7.312;2024-02-21T02:58:35;7.80;99.90
2873;DHT22;1444;49.166;7.312;2024-02-21T03:01:02;7.70;99.90
2873;DHT22;1444;49.166;7.312;2024-02-21T03:03:28;7.70;99.90
2873;DHT22;1444;49.166;7.312;2024-02-21T03:05:55;7.60;99.90
2873;DHT22;1444;49.166;7.312;2024-02-21T03:08:22;7.60;99.90
2873;DHT22;1444;49.166;7.312;2024-02-21T03:10:48;7.50;99.90
2873;DHT22;1444;49.166;7.312;2024-02-21T03:13:15;7.50;99.90
2873;DHT22;1444;49.166;7.312;2024-02-21T03:15:43;7.40;99.90
2873;DHT22;1444;49.166;7.312;2024-02-21T03:18:10;7.40;99.90
2873;DHT22;1444;49.166;7.312;2024-02-21T03:20:37;7.40;99.90
2873;DHT22;1444;49.166;7.312;2024-02-21T03:23:04;7.40;99.90
2873;DHT22;1444;49.166;7.312;2024-02-21T03:25:31;7.40;99.90
2873;DHT22;1444;49.166;7.312;2024-02-21T03:27:57;7.40;99.90
2873;DHT22;1444;49.166;7.312;2024-02-21T03:30:24;7.30;99.90
2873;DHT22;1444;49.166;7.312;2024-02-21T03:32:52;7.30;99.90
2873;DHT22;1444;49.166;7.312;2024-02-21T03:35:19;7.20;99.90
2873;DHT22;1444;49.166;7.312;2024-02-21T03:37:46;7.10;99.90
2873;DHT22;1444;49.166;7.312;2024-02-21T03:40:13;7.10;99.90
2873;DHT22;1444;49.166;7.312;2024-02-21T03:42:40;7.00;99.90
2873;DHT22;1444;49.166;7.312;2024-02-21T03:45:08;7.00;99.90
2873;DHT22;1444;49.166;7.312;2024-02-21T03:47:35;6.90;99.90
2873;DHT22;1444;49.166;7.312;2024-02-21T03:50:04;6.80;99.90
2873;DHT22;1444;49.166;7.312;2024-02-21T03:52:31;6.80;99.90
2873;DHT22;1444;49.166;7.312;2024-02-21T03:54:58;6.70;99.90
2873;DHT22;1444;49.166;7.312;2024-02-21T03:57:24;6.70;99.90
2873;DHT22;1444;49.166;7.312;2024-02-21T03:59:51;6.70;99.90
2873;DHT22;1444;49.166;7.312;2024-02-21T04:02:18;6.70;99.90
2873;DHT22;1444;49.166;7.312;2024-02-21T04:04:45;6.80;99.90
2873;DHT22;1444;49.166;7.312;2024-02-21T04:07:15;6.80;99.90
2873;DHT22;1444;49.166;7.312;2024-02-21T04:09:42;6.90;99.90
2873;DHT22;1444;49.166;7.312;2024-02-21T04:14:36;7.10;99.90
2873;DHT22;1444;49.166;7.312;2024-02-21T04:17:03;7.10;99.90
2873;DHT22;1444;49.166;7.312;2024-02-21T04:19:30;7.20;99.90
2873;DHT22;1444;49.166;7.312;2024-02-21T04:21:58;7.20;99.90
2873;DHT22;1444;49.166;7.312;2024-02-21T04:26:53;7.30;99.90
2873;DHT22;1444;49.166;7.312;2024-02-21T04:29:20;7.30;99.90
2873;DHT22;1444;49.166;7.312;2024-02-21T04:31:47;7.30;99.90
2873;DHT22;1444;49.166;7.312;2024-02-21T04:34:14;7.30;99.90
2873;DHT22;1444;49.166;7.312;2024-02-21T04:36:40;7.40;99.90
2873;DHT22;1444;49.166;7.312;2024-02-21T04:39:09;7.40;99.90
2873;DHT22;1444;49.166;7.312;2024-02-21T04:41:38;7.40;99.90
2873;DHT22;1444;49.166;7.312;2024-02-21T04:44:05;7.40;99.90
2873;DHT22;1444;49.166;7.312;2024-02-21T04:46:32;7.40;99.90
2873;DHT22;1444;49.166;7.312;2024-02-21T04:48:59;7.30;99.90
2873;DHT22;1444;49.166;7.312;2024-02-21T04:51:26;7.30;99.90
2873;DHT22;1444;49.166;7.312;2024-02-21T04:53:52;7.30;99.90
2873;DHT22;1444;49.166;7.312;2024-02-21T04:56:19;7.30;99.90
2873;DHT22;1444;49.166;7.312;2024-02-21T04:58:48;7.30;99.90
2873;DHT22;1444;49.166;7.312;2024-02-21T05:01:14;7.20;99.90
2873;DHT22;1444;49.166;7.312;2024-02-21T05:03:42;7.20;99.90
2873;DHT22;1444;49.166;7.312;2024-02-21T05:08:37;7.30;99.90
2873;DHT22;1444;49.166;7.312;2024-02-21T05:11:04;7.30;99.90
2873;DHT22;1444;49.166;7.312;2024-02-21T05:13:31;7.40;99.90
2873;DHT22;1444;49.166;7.312;2024-02-21T05:15:59;7.50;99.90
2873;DHT22;1444;49.166;7.312;2024-02-21T05:18:27;7.50;99.90
2873;DHT22;1444;49.166;7.312;2024-02-21T05:20:53;7.40;99.90
2873;DHT22;1444;49.166;7.312;2024-02-21T05:23:20;7.40;99.90
2873;DHT22;1444;49.166;7.312;2024-02-21T05:25:47;7.50;99.90
2873;DHT22;1444;49.166;7.312;2024-02-21T05:28:14;7.60;99.90
2873;DHT22;1444;49.166;7.312;2024-02-21T05:30:41;7.60;99.90
2873;DHT22;1444;49.166;7.312;2024-02-21T05:33:10;7.60;99.90
2873;DHT22;1444;49.166;7.312;2024-02-21T05:35:38;7.80;99.90
2873;DHT22;1444;49.166;7.312;2024-02-21T05:38:05;7.90;99.90
2873;DHT22;1444;49.166;7.312;2024-02-21T05:40:36;8.00;99.90
2873;DHT22;1444;49.166;7.312;2024-02-21T05:43:03;8.00;99.90
2873;DHT22;1444;49.166;7.312;2024-02-21T05:45:30;7.90;99.90
2873;DHT22;1444;49.166;7.312;2024-02-21T05:47:57;7.80;99.90
2873;DHT22;1444;49.166;7.312;2024-02-21T05:50:26;7.60;99.90
2873;DHT22;1444;49.166;7.312;2024-02-21T05:52:54;7.50;99.90
2873;DHT22;1444;49.166;7.312;2024-02-21T05:55:22;7.30;99.90
2873;DHT22;1444;49.166;7.312;2024-02-21T05:57:49;7.30;99.90
2873;DHT22;1444;49.166;7.312;2024-02-21T06:00:16;7.20;99.90
2873;DHT22;1444;49.166;7.312;2024-02-21T06:02:43;7.10;99.90
2873;DHT22;1444;49.166;7.312;2024-02-21T06:05:10;7.10;99.90
2873;DHT22;1444;49.166;7.312;2024-02-21T06:07:38;7.10;99.90
2873;DHT22;1444;49.166;7.312;2024-02-21T06:10:07;7.10;99.90
2873;DHT22;1444;49.166;7.312;2024-02-21T06:12:34;7.00;99.90
2873;DHT22;1444;49.166;7.312;2024-02-21T06:15:01;7.00;99.90
2873;DHT22;1444;49.166;7.312;2024-02-21T06:17:28;7.10;99.90
2873;DHT22;1444;49.166;7.312;2024-02-21T06:19:55;7.30;99.90
2873;DHT22;1444;49.166;7.312;2024-02-21T06:22:22;7.40;99.90
2873;DHT22;1444;49.166;7.312;2024-02-21T06:24:50;7.30;99.90
2873;DHT22;1444;49.166;7.312;2024-02-21T06:27:17;7.40;99.90
2873;DHT22;1444;49.166;7.312;2024-02-21T06:29:44;7.30;99.90
2873;DHT22;1444;49.166;7.312;2024-02-21T06:32:11;7.30;99.90
2873;DHT22;1444;49.166;7.312;2024-02-21T06:34:38;7.30;99.90
2873;DHT22;1444;49.166;7.312;2024-02-21T06:37:04;7.30;99.90
2873;DHT22;1444;49.166;7.312;2024-02-21T06:39:32;7.30;99.90
2873;DHT22;1444;49.166;7.312;2024-02-21T06:42:01;7.20;99.90
2873;DHT22;1444;49.166;7.312;2024-02-21T06:44:28;7.00;99.90
2873;DHT22;1444;49.166;7.312;2024-02-21T06:46:55;7.00;99.90
2873;DHT22;1444;49.166;7.312;2024-02-21T06:49:21;6.80;99.90
2873;DHT22;1444;49.166;7.312;2024-02-21T06:51:48;6.70;99.90
2873;DHT22;1444;49.166;7.312;2024-02-21T06:54:15;6.70;99.90
2873;DHT22;1444;49.166;7.312;2024-02-21T06:56:42;6.70;99.90
2873;DHT22;1444;49.166;7.312;2024-02-21T06:59:10;6.80;99.90
2873;DHT22;1444;49.166;7.312;2024-02-21T07:01:44;6.80;99.90
2873;DHT22;1444;49.166;7.312;2024-02-21T07:04:11;6.90;99.90
2873;DHT22;1444;49.166;7.312;2024-02-21T07:06:38;6.90;99.90
2873;DHT22;1444;49.166;7.312;2024-02-21T07:09:05;6.90;99.90
2873;DHT22;1444;49.166;7.312;2024-02-21T07:11:32;7.10;99.90
2873;DHT22;1444;49.166;7.312;2024-02-21T07:13:59;7.20;99.90
2873;DHT22;1444;49.166;7.312;2024-02-21T07:16:27;7.20;99.90
2873;DHT22;1444;49.166;7.312;2024-02-21T07:18:55;7.30;99.90
2873;DHT22;1444;49.166;7.312;2024-02-21T07:23:49;7.20;99.90
2873;DHT22;1444;49.166;7.312;2024-02-21T07:26:16;7.20;99.90
2873;DHT22;1444;49.166;7.312;2024-02-21T07:28:43;7.20;99.90
2873;DHT22;1444;49.166;7.312;2024-02-21T07:31:10;7.10;99.90
2873;DHT22;1444;49.166;7.312;2024-02-21T07:33:38;7.10;99.90
2873;DHT22;1444;49.166;7.312;2024-02-21T07:36:06;7.10;99.90
2873;DHT22;1444;49.166;7.312;2024-02-21T07:38:34;7.00;99.90
2873;DHT22;1444;49.166;7.312;2024-02-21T07:41:00;7.00;99.90
2873;DHT22;1444;49.166;7.312;2024-02-21T07:43:28;6.90;99.90
2873;DHT22;1444;49.166;7.312;2024-02-21T07:45:55;7.00;99.90
2873;DHT22;1444;49.166;7.312;2024-02-21T07:50:51;6.90;99.90
2873;DHT22;1444;49.166;7.312;2024-02-21T07:53:20;6.90;99.90
2873;DHT22;1444;49.166;7.312;2024-02-21T07:58:14;7.00;99.90
2873;DHT22;1444;49.166;7.312;2024-02-21T08:00:41;7.00;99.90
2873;DHT22;1444;49.166;7.312;2024-02-21T08:03:08;7.10;99.90
2873;DHT22;1444;49.166;7.312;2024-02-21T08:05:35;7.20;99.90
2873;DHT22;1444;49.166;7.312;2024-02-21T08:08:03;7.20;99.90
2873;DHT22;1444;49.166;7.312;2024-02-21T08:10:30;7.30;99.90
2873;DHT22;1444;49.166;7.312;2024-02-21T08:12:57;7.40;99.90
2873;DHT22;1444;49.166;7.312;2024-02-21T08:15:24;7.50;99.90
2873;DHT22;1444;49.166;7.312;2024-02-21T08:17:55;7.60;99.90
2873;DHT22;1444;49.166;7.312;2024-02-21T08:20:25;7.70;99.90
2873;DHT22;1444;49.166;7.312;2024-02-21T08:22:51;7.80;99.90
2873;DHT22;1444;49.166;7.312;2024-02-21T08:25:20;7.80;99.90
2873;DHT22;1444;49.166;7.312;2024-02-21T08:27:46;7.90;99.90
2873;DHT22;1444;49.166;7.312;2024-02-21T08:30:14;7.90;99.90
2873;DHT22;1444;49.166;7.312;2024-02-21T08:32:41;7.90;99.90
2873;DHT22;1444;49.166;7.312;2024-02-21T08:35:08;8.00;99.90
2873;DHT22;1444;49.166;7.312;2024-02-21T08:37:35;8.00;99.90
2873;DHT22;1444;49.166;7.312;2024-02-21T08:40:02;7.90;99.90
2873;DHT22;1444;49.166;7.312;2024-02-21T08:42:35;8.00;99.90
2873;DHT22;1444;49.166;7.312;2024-02-21T08:45:02;8.00;99.90
2873;DHT22;1444;49.166;7.312;2024-02-21T08:49:56;8.20;99.90
2873;DHT22;1444;49.166;7.312;2024-02-21T08:52:23;8.30;99.90
2873;DHT22;1444;49.166;7.312;2024-02-21T08:54:49;8.50;99.90
2873;DHT22;1444;49.166;7.312;2024-02-21T08:57:19;8.50;99.90
2873;DHT22;1444;49.166;7.312;2024-02-21T08:59:47;8.60;99.90
2873;DHT22;1444;49.166;7.312;2024-02-21T09:02:14;8.60;99.90
2873;DHT22;1444;49.166;7.312;2024-02-21T09:04:42;8.70;99.90
2873;DHT22;1444;49.166;7.312;2024-02-21T09:07:09;8.80;99.90
2873;DHT22;1444;49.166;7.312;2024-02-21T09:09:36;8.60;99.90
2873;DHT22;1444;49.166;7.312;2024-02-21T09:12:05;8.50;99.90
2873;DHT22;1444;49.166;7.312;2024-02-21T09:14:32;8.60;99.90
2873;DHT22;1444;49.166;7.312;2024-02-21T09:17:01;8.60;99.90
2873;DHT22;1444;49.166;7.312;2024-02-21T09:19:27;8.80;99.90
2873;DHT22;1444;49.166;7.312;2024-02-21T09:21:55;8.90;99.90
2873;DHT22;1444;49.166;7.312;2024-02-21T09:24:22;9.00;99.90
2873;DHT22;1444;49.166;7.312;2024-02-21T09:26:48;9.00;99.90
2873;DHT22;1444;49.166;7.312;2024-02-21T09:29:15;9.10;99.90
2873;DHT22;1444;49.166;7.312;2024-02-21T09:31:42;9.20;99.90
2873;DHT22;1444;49.166;7.312;2024-02-21T09:36:38;9.40;99.90
2873;DHT22;1444;49.166;7.312;2024-02-21T09:39:06;9.50;99.90
2873;DHT22;1444;49.166;7.312;2024-02-21T09:41:36;9.50;99.90
2873;DHT22;1444;49.166;7.312;2024-02-21T09:44:06;9.40;99.90
2873;DHT22;1444;49.166;7.312;2024-02-21T09:46:41;9.50;99.90
2873;DHT22;1444;49.166;7.312;2024-02-21T09:49:21;9.50;99.90
2873;DHT22;1444;49.166;7.312;2024-02-21T09:51:52;9.60;99.90
2873;DHT22;1444;49.166;7.312;2024-02-21T09:54:20;9.60;99.90
2873;DHT22;1444;49.166;7.312;2024-02-21T09:56:48;9.70;99.90
2873;DHT22;1444;49.166;7.312;2024-02-21T09:59:15;9.80;99.90
2873;DHT22;1444;49.166;7.312;2024-02-21T10:04:11;9.90;99.90
2873;DHT22;1444;49.166;7.312;2024-02-21T10:06:38;10.00;99.90
2873;DHT22;1444;49.166;7.312;2024-02-21T10:09:06;10.10;99.90
2873;DHT22;1444;49.166;7.312;2024-02-21T10:11:33;10.20;99.90
2873;DHT22;1444;49.166;7.312;2024-02-21T10:14:04;10.20;99.90
2873;DHT22;1444;49.166;7.312;2024-02-21T10:16:32;10.20;99.90
2873;DHT22;1444;49.166;7.312;2024-02-21T10:19:00;10.10;99.90
2873;DHT22;1444;49.166;7.312;2024-02-21T10:21:28;10.10;99.90
2873;DHT22;1444;49.166;7.312;2024-02-21T10:23:55;10.10;99.90
2873;DHT22;1444;49.166;7.312;2024-02-21T10:26:22;10.10;99.90
2873;DHT22;1444;49.166;7.312;2024-02-21T10:28:49;10.00;99.90
2873;DHT22;1444;49.166;7.312;2024-02-21T10:31:24;9.80;99.90
2873;DHT22;1444;49.166;7.312;2024-02-21T10:33:54;9.80;99.90
2873;DHT22;1444;49.166;7.312;2024-02-21T10:36:21;9.90;99.90
2873;DHT22;1444;49.166;7.312;2024-02-21T10:38:51;10.00;99.90
2873;DHT22;1444;49.166;7.312;2024-02-21T10:41:19;10.00;99.90
2873;DHT22;1444;49.166;7.312;2024-02-21T10:43:50;9.90;99.90
2873;DHT22;1444;49.166;7.312;2024-02-21T10:46:21;9.80;99.90
2873;DHT22;1444;49.166;7.312;2024-02-21T10:48:56;9.80;99.90
2873;DHT22;1444;49.166;7.312;2024-02-21T10:51:27;9.80;99.90
2873;DHT22;1444;49.166;7.312;2024-02-21T10:54:05;9.90;99.90
2873;DHT22;1444;49.166;7.312;2024-02-21T10:56:37;9.80;99.90
2873;DHT22;1444;49.166;7.312;2024-02-21T10:59:07;9.90;99.90
2873;DHT22;1444;49.166;7.312;2024-02-21T11:01:34;9.90;99.90
2873;DHT22;1444;49.166;7.312;2024-02-21T11:04:02;10.10;99.90
2873;DHT22;1444;49.166;7.312;2024-02-21T11:06:30;10.20;99.90
2873;DHT22;1444;49.166;7.312;2024-02-21T11:09:04;10.20;99.90
2873;DHT22;1444;49.166;7.312;2024-02-21T11:14:08;10.30;99.90
2873;DHT22;1444;49.166;7.312;2024-02-21T11:16:36;10.40;99.90
2873;DHT22;1444;49.166;7.312;2024-02-21T11:19:05;10.50;99.90
2873;DHT22;1444;49.166;7.312;2024-02-21T11:21:33;10.50;99.90
2873;DHT22;1444;49.166;7.312;2024-02-21T11:24:02;10.50;99.90
2873;DHT22;1444;49.166;7.312;2024-02-21T11:26:30;10.60;99.90
2873;DHT22;1444;49.166;7.312;2024-02-21T11:28:57;10.80;99.90
2873;DHT22;1444;49.166;7.312;2024-02-21T11:31:25;11.00;99.90
2873;DHT22;1444;49.166;7.312;2024-02-21T11:33:53;11.00;99.90
2873;DHT22;1444;49.166;7.312;2024-02-21T11:36:27;11.00;99.90
2873;DHT22;1444;49.166;7.312;2024-02-21T11:38:54;11.00;99.90
2873;DHT22;1444;49.166;7.312;2024-02-21T11:41:22;11.10;99.90
2873;DHT22;1444;49.166;7.312;2024-02-21T11:43:49;11.00;99.90
2873;DHT22;1444;49.166;7.312;2024-02-21T11:48:44;11.00;99.90
2873;DHT22;1444;49.166;7.312;2024-02-21T11:51:21;10.90;99.90
2873;DHT22;1444;49.166;7.312;2024-02-21T11:53:50;11.00;99.90
2873;DHT22;1444;49.166;7.312;2024-02-21T11:56:18;10.90;99.90
2873;DHT22;1444;49.166;7.312;2024-02-21T11:58:47;11.10;99.90
2873;DHT22;1444;49.166;7.312;2024-02-21T12:01:14;11.20;99.90
2873;DHT22;1444;49.166;7.312;2024-02-21T12:03:42;11.10;99.90
2873;DHT22;1444;49.166;7.312;2024-02-21T12:06:15;11.10;99.90
2873;DHT22;1444;49.166;7.312;2024-02-21T12:08:45;11.20;99.90
2873;DHT22;1444;49.166;7.312;2024-02-21T12:11:21;11.10;99.90
2873;DHT22;1444;49.166;7.312;2024-02-21T12:13:59;10.90;99.90
2873;DHT22;1444;49.166;7.312;2024-02-21T12:16:29;10.90;99.90
2873;DHT22;1444;49.166;7.312;2024-02-21T12:18:56;11.00;99.90
2873;DHT22;1444;49.166;7.312;2024-02-21T12:21:26;11.10;99.90
2873;DHT22;1444;49.166;7.312;2024-02-21T12:23:54;11.10;99.90
2873;DHT22;1444;49.166;7.312;2024-02-21T12:26:21;11.20;99.90
2873;DHT22;1444;49.166;7.312;2024-02-21T12:28:48;11.20;99.90
2873;DHT22;1444;49.166;7.312;2024-02-21T12:31:16;11.20;99.90
2873;DHT22;1444;49.166;7.312;2024-02-21T12:33:43;11.20;99.90
2873;DHT22;1444;49.166;7.312;2024-02-21T12:36:10;11.10;99.90
2873;DHT22;1444;49.166;7.312;2024-02-21T12:38:37;11.10;99.90
2873;DHT22;1444;49.166;7.312;2024-02-21T12:41:04;11.20;99.90
2873;DHT22;1444;49.166;7.312;2024-02-21T12:43:31;11.30;99.90
2873;DHT22;1444;49.166;7.312;2024-02-21T12:45:58;11.30;99.90
2873;DHT22;1444;49.166;7.312;2024-02-21T12:48:27;11.30;99.90
2873;DHT22;1444;49.166;7.312;2024-02-21T12:50:54;11.30;99.90
2873;DHT22;1444;49.166;7.312;2024-02-21T12:53:21;11.30;99.90
2873;DHT22;1444;49.166;7.312;2024-02-21T12:55:48;11.40;99.90
2873;DHT22;1444;49.166;7.312;2024-02-21T12:58:15;11.40;99.90
2873;DHT22;1444;49.166;7.312;2024-02-21T13:00:43;11.30;99.90
2873;DHT22;1444;49.166;7.312;2024-02-21T13:03:10;11.40;99.90
2873;DHT22;1444;49.166;7.312;2024-02-21T13:05:38;11.50;99.90
2873;DHT22;1444;49.166;7.312;2024-02-21T13:08:06;11.50;99.90
2873;DHT22;1444;49.166;7.312;2024-02-21T13:10:33;11.50;99.90
2873;DHT22;1444;49.166;7.312;2024-02-21T13:13:00;11.50;99.90
2873;DHT22;1444;49.166;7.312;2024-02-21T13:15:27;11.50;99.90
2873;DHT22;1444;49.166;7.312;2024-02-21T13:17:55;11.40;99.90
2873;DHT22;1444;49.166;7.312;2024-02-21T13:20:22;11.50;99.90
2873;DHT22;1444;49.166;7.312;2024-02-21T13:22:50;11.30;99.90
2873;DHT22;1444;49.166;7.312;2024-02-21T13:25:17;11.30;99.90
2873;DHT22;1444;49.166;7.312;2024-02-21T13:27:46;11.30;99.90
2873;DHT22;1444;49.166;7.312;2024-02-21T13:30:13;11.40;99.50
2873;DHT22;1444;49.166;7.312;2024-02-21T13:32:41;11.40;99.60
2873;DHT22;1444;49.166;7.312;2024-02-21T13:35:08;11.60;99.90
2873;DHT22;1444;49.166;7.312;2024-02-21T13:37:37;11.60;99.50
2873;DHT22;1444;49.166;7.312;2024-02-21T13:40:06;11.50;99.90
2873;DHT22;1444;49.166;7.312;2024-02-21T13:42:34;11.70;99.70
2873;DHT22;1444;49.166;7.312;2024-02-21T13:45:01;11.70;99.90
2873;DHT22;1444;49.166;7.312;2024-02-21T13:47:28;11.80;99.90
2873;DHT22;1444;49.166;7.312;2024-02-21T13:49:55;11.80;99.80
2873;DHT22;1444;49.166;7.312;2024-02-21T13:52:22;11.80;98.90
2873;DHT22;1444;49.166;7.312;2024-02-21T13:54:51;11.70;99.20
2873;DHT22;1444;49.166;7.312;2024-02-21T13:57:20;11.80;99.30
2873;DHT22;1444;49.166;7.312;2024-02-21T13:59:46;11.80;99.70
2873;DHT22;1444;49.166;7.312;2024-02-21T14:02:13;11.80;99.80
2873;DHT22;1444;49.166;7.312;2024-02-21T14:04:40;11.90;99.30
2873;DHT22;1444;49.166;7.312;2024-02-21T14:07:07;11.80;99.50
2873;DHT22;1444;49.166;7.312;2024-02-21T14:12:03;11.90;99.90
2873;DHT22;1444;49.166;7.312;2024-02-21T14:14:34;12.00;99.90
2873;DHT22;1444;49.166;7.312;2024-02-21T14:17:02;12.00;99.20
2873;DHT22;1444;49.166;7.312;2024-02-21T14:19:29;12.00;99.40
2873;DHT22;1444;49.166;7.312;2024-02-21T14:21:56;12.00;99.20
2873;DHT22;1444;49.166;7.312;2024-02-21T14:24:22;11.80;99.00
2873;DHT22;1444;49.166;7.312;2024-02-21T14:26:49;11.60;98.70
2873;DHT22;1444;49.166;7.312;2024-02-21T14:29:16;11.60;99.10
2873;DHT22;1444;49.166;7.312;2024-02-21T14:31:44;11.60;99.10
2873;DHT22;1444;49.166;7.312;2024-02-21T14:34:11;11.70;99.70
2873;DHT22;1444;49.166;7.312;2024-02-21T14:36:38;11.70;99.50
2873;DHT22;1444;49.166;7.312;2024-02-21T14:39:06;11.70;99.20
2873;DHT22;1444;49.166;7.312;2024-02-21T14:41:33;11.80;99.10
2873;DHT22;1444;49.166;7.312;2024-02-21T14:44:01;11.80;99.30
2873;DHT22;1444;49.166;7.312;2024-02-21T14:46:29;11.90;99.90
2873;DHT22;1444;49.166;7.312;2024-02-21T14:48:57;12.00;99.20
2873;DHT22;1444;49.166;7.312;2024-02-21T14:51:24;11.90;98.60
2873;DHT22;1444;49.166;7.312;2024-02-21T14:53:51;11.90;99.00
2873;DHT22;1444;49.166;7.312;2024-02-21T14:56:18;11.80;98.70
2873;DHT22;1444;49.166;7.312;2024-02-21T14:58:44;11.80;98.60
2873;DHT22;1444;49.166;7.312;2024-02-21T15:01:12;11.70;97.90
2873;DHT22;1444;49.166;7.312;2024-02-21T15:03:39;11.70;98.20
2873;DHT22;1444;49.166;7.312;2024-02-21T15:06:07;11.70;98.10
2873;DHT22;1444;49.166;7.312;2024-02-21T15:08:34;11.60;98.20
2873;DHT22;1444;49.166;7.312;2024-02-21T15:11:02;11.60;98.60
2873;DHT22;1444;49.166;7.312;2024-02-21T15:13:29;11.70;98.70
2873;DHT22;1444;49.166;7.312;2024-02-21T15:18:24;11.70;99.50
2873;DHT22;1444;49.166;7.312;2024-02-21T15:20:50;11.80;99.10
2873;DHT22;1444;49.166;7.312;2024-02-21T15:23:20;11.80;99.30
2873;DHT22;1444;49.166;7.312;2024-02-21T15:25:49;11.80;98.80
2873;DHT22;1444;49.166;7.312;2024-02-21T15:28:16;11.80;98.50
2873;DHT22;1444;49.166;7.312;2024-02-21T15:30:43;11.70;98.40
2873;DHT22;1444;49.166;7.312;2024-02-21T15:33:09;11.60;98.30
2873;DHT22;1444;49.166;7.312;2024-02-21T15:35:36;11.60;98.60
2873;DHT22;1444;49.166;7.312;2024-02-21T15:38:03;11.60;98.40
2873;DHT22;1444;49.166;7.312;2024-02-21T15:40:32;11.70;98.20
2873;DHT22;1444;49.166;7.312;2024-02-21T15:43:01;11.60;98.00
2873;DHT22;1444;49.166;7.312;2024-02-21T15:45:28;11.60;98.30
2873;DHT22;1444;49.166;7.312;2024-02-21T15:47:54;11.60;98.00
2873;DHT22;1444;49.166;7.312;2024-02-21T15:50:22;11.50;97.30
2873;DHT22;1444;49.166;7.312;2024-02-21T15:52:49;11.50;97.20
2873;DHT22;1444;49.166;7.312;2024-02-21T15:55:16;11.60;97.50
2873;DHT22;1444;49.166;7.312;2024-02-21T15:57:44;11.60;97.10
2873;DHT22;1444;49.166;7.312;2024-02-21T16:00:12;11.60;97.00
2873;DHT22;1444;49.166;7.312;2024-02-21T16:02:39;11.60;97.20
2873;DHT22;1444;49.166;7.312;2024-02-21T16:05:07;11.70;97.00
2873;DHT22;1444;49.166;7.312;2024-02-21T16:07:36;11.50;97.00
2873;DHT22;1444;49.166;7.312;2024-02-21T16:10:03;11.60;98.90
2873;DHT22;1444;49.166;7.312;2024-02-21T16:12:31;11.50;99.60
2873;DHT22;1444;49.166;7.312;2024-02-21T16:14:59;11.50;99.90
2873;DHT22;1444;49.166;7.312;2024-02-21T16:17:26;11.40;99.90
2873;DHT22;1444;49.166;7.312;2024-02-21T16:19:53;11.40;99.90
2873;DHT22;1444;49.166;7.312;2024-02-21T16:22:19;11.40;99.90
2873;DHT22;1444;49.166;7.312;2024-02-21T16:24:46;11.40;99.90
2873;DHT22;1444;49.166;7.312;2024-02-21T16:27:14;11.30;99.90
2873;DHT22;1444;49.166;7.312;2024-02-21T16:29:41;11.20;99.90
2873;DHT22;1444;49.166;7.312;2024-02-21T16:32:09;11.20;99.90
2873;DHT22;1444;49.166;7.312;2024-02-21T16:34:36;11.10;99.90
2873;DHT22;1444;49.166;7.312;2024-02-21T16:37:03;11.00;99.90
2873;DHT22;1444;49.166;7.312;2024-02-21T16:39:31;11.00;99.90
2873;DHT22;1444;49.166;7.312;2024-02-21T16:41:58;10.90;99.90
2873;DHT22;1444;49.166;7.312;2024-02-21T16:44:28;10.80;99.50
2873;DHT22;1444;49.166;7.312;2024-02-21T16:46:56;10.80;99.00
2873;DHT22;1444;49.166;7.312;2024-02-21T16:49:25;10.90;99.10
2873;DHT22;1444;49.166;7.312;2024-02-21T16:51:52;10.90;98.50